Time;durP1;ratioP1;P1;durP2;ratioP2;P2;SDS_P1;SDS_P2;PMS_P1;PMS_P2;Temp;Humidity;BMP_temperature;BMP_pressure;BME280_temperature;BME280_humidity;BME280_pressure;Samples;Min_cycle;Max_cycle;Signal;HPM_P1;HPM_P2
2022/01/04 00:01:46;;;;;;;50.75;31.15;;;;;;;7.44;76.64;101399.22;5029131;28;20053;-74
2022/01/04 00:04:13;;;;;;;49.92;31.38;;;;;;;7.44;76.62;101393.97;5027916;28;20050;-74
2022/01/04 00:06:40;;;;;;;49.20;31.40;;;;;;;7.43;76.66;101390.53;5028775;28;20042;-74
2022/01/04 00:09:07;;;;;;;48.15;30.52;;;;;;;7.44;76.72;101386.16;5028348;28;20484;-74
2022/01/04 00:11:58;;;;;;;49.45;31.73;;;;;;;7.45;76.63;101380.03;5028930;28;20052;-74
2022/01/04 00:14:25;;;;;;;49.38;31.70;;;;;;;7.45;76.67;101377.41;5029055;28;20049;-74
2022/01/04 00:16:55;;;;;;;47.45;31.08;;;;;;;7.45;76.75;101374.81;5028646;28;20042;-73
2022/01/04 00:19:22;;;;;;;50.30;31.58;;;;;;;7.45;76.86;101373.06;5027801;28;20045;-75
2022/01/04 00:21:49;;;;;;;47.22;30.30;;;;;;;7.45;76.82;101364.34;5027488;28;20107;-74
2022/01/04 00:24:16;;;;;;;49.13;30.42;;;;;;;7.45;76.60;101366.97;5028788;28;20041;-74
2022/01/04 00:26:42;;;;;;;49.80;30.98;;;;;;;7.43;77.05;101363.59;5028529;28;20068;-74
2022/01/04 00:29:14;;;;;;;47.40;30.50;;;;;;;7.43;76.94;101361.81;5028929;28;20041;-74
2022/01/04 00:31:40;;;;;;;50.50;31.20;;;;;;;7.45;77.10;101359.13;5028488;28;20053;-74
2022/01/04 00:34:07;;;;;;;52.15;32.60;;;;;;;7.44;76.96;101354.81;5028445;28;20073;-74
2022/01/04 00:36:33;;;;;;;48.00;32.13;;;;;;;7.47;77.09;101349.50;5027638;28;20045;-74
2022/01/04 00:39:00;;;;;;;48.20;31.60;;;;;;;7.47;76.78;101347.75;5030825;28;20503;-75
2022/01/04 00:41:27;;;;;;;48.10;31.60;;;;;;;7.48;76.86;101353.84;5031605;28;20061;-75
2022/01/04 00:43:54;;;;;;;50.15;31.20;;;;;;;7.45;76.84;101346.94;5031765;28;20038;-75
2022/01/04 00:46:20;;;;;;;51.05;32.60;;;;;;;7.46;76.92;101340.81;5031780;28;20046;-74
2022/01/04 00:51:32;;;;;;;49.80;31.95;;;;;;;7.47;77.01;101332.06;5032098;28;20080;-74
2022/01/04 00:53:59;;;;;;;48.92;30.02;;;;;;;7.48;76.93;101330.31;5030268;28;20091;-74
2022/01/04 00:56:25;;;;;;;48.83;31.55;;;;;;;7.47;77.05;101333.84;5031780;28;20416;-74
2022/01/04 00:58:53;;;;;;;49.40;32.15;;;;;;;7.48;77.12;101335.56;5031705;28;20052;-74
2022/01/04 01:01:20;;;;;;;48.72;31.38;;;;;;;7.49;76.90;101335.50;5031636;28;20415;-74
2022/01/04 01:03:47;;;;;;;46.05;30.38;;;;;;;7.49;77.13;101339.84;5031633;28;20050;-74
2022/01/04 01:06:14;;;;;;;46.70;29.83;;;;;;;7.48;76.96;101325.94;5031729;28;20068;-75
2022/01/04 01:08:41;;;;;;;46.88;31.20;;;;;;;7.47;76.86;101329.47;5031166;28;20045;-75
2022/01/04 01:11:09;;;;;;;50.40;30.67;;;;;;;7.49;77.09;101318.94;5030283;28;20507;-75
2022/01/04 01:13:38;;;;;;;52.00;30.13;;;;;;;7.50;77.11;101326.75;5031546;28;20099;-74
2022/01/04 01:16:06;;;;;;;47.15;32.13;;;;;;;7.51;77.04;101333.66;5031065;28;20557;-74
2022/01/04 01:18:33;;;;;;;46.65;29.67;;;;;;;7.50;76.91;101329.38;5031605;28;20049;-74
2022/01/04 01:21:00;;;;;;;45.92;30.27;;;;;;;7.49;77.18;101335.50;5031350;28;20381;-74
2022/01/04 01:23:27;;;;;;;48.22;31.45;;;;;;;7.50;77.18;101333.72;5031522;28;20053;-75
2022/01/04 01:25:53;;;;;;;46.70;30.60;;;;;;;7.50;77.26;101328.50;5030574;28;20045;-74
2022/01/04 01:28:20;;;;;;;50.88;30.58;;;;;;;7.50;77.38;101326.75;5031391;28;20045;-75
2022/01/04 01:30:47;;;;;;;49.75;31.23;;;;;;;7.50;77.24;101331.09;5031426;28;20053;-74
2022/01/04 01:33:15;;;;;;;47.25;30.42;;;;;;;7.48;77.42;101328.56;5032106;28;20045;-74
2022/01/04 01:35:42;;;;;;;46.72;30.23;;;;;;;7.50;77.40;101320.66;5034949;28;20045;-75
2022/01/04 01:38:10;;;;;;;45.35;29.83;;;;;;;7.49;77.20;101314.59;5034262;28;20057;-74
2022/01/04 01:40:37;;;;;;;51.38;31.92;;;;;;;7.49;77.49;101317.22;5034524;28;20067;-74
2022/01/04 01:43:05;;;;;;;49.83;31.45;;;;;;;7.50;77.38;101315.44;5033929;28;20049;-74
2022/01/04 01:45:31;;;;;;;47.10;31.10;;;;;;;7.51;77.32;101314.53;5034784;28;20042;-74
2022/01/04 01:47:58;;;;;;;49.72;31.52;;;;;;;7.52;77.29;101305.81;5034678;28;20057;-75
2022/01/04 01:50:25;;;;;;;48.33;30.73;;;;;;;7.52;77.34;101303.19;5034637;28;20041;-75
2022/01/04 01:52:54;;;;;;;48.35;30.00;;;;;;;7.52;77.35;101301.41;5034341;28;20476;-75
2022/01/04 01:55:22;;;;;;;46.78;30.70;;;;;;;7.52;77.33;101295.34;5034476;28;20053;-75
2022/01/04 01:57:50;;;;;;;51.58;30.77;;;;;;;7.52;77.33;101290.97;5034334;28;20045;-74
2022/01/04 02:00:19;;;;;;;46.95;30.00;;;;;;;7.52;77.49;101288.38;5033555;28;20092;-74
2022/01/04 02:02:46;;;;;;;50.72;32.05;;;;;;;7.52;77.45;101272.69;5034222;28;20164;-74
2022/01/04 02:05:13;;;;;;;48.92;30.23;;;;;;;7.52;77.46;101271.84;5034394;28;20450;-74
2022/01/04 02:07:41;;;;;;;50.63;31.58;;;;;;;7.51;77.57;101273.59;5034243;28;20064;-74
2022/01/04 02:10:09;;;;;;;52.20;32.45;;;;;;;7.54;77.34;101270.03;5034231;28;20041;-74
2022/01/04 02:12:46;;;;;;;47.33;29.65;;;;;;;7.55;77.38;101256.06;5034223;28;20511;-75
2022/01/04 02:15:16;;;;;;;55.80;31.40;;;;;;;7.51;77.50;101251.88;5021974;28;20064;-74
2022/01/04 02:17:43;;;;;;;53.10;32.47;;;;;;;7.49;77.50;101251.06;5033358;28;20389;-74
2022/01/04 02:20:11;;;;;;;48.35;30.70;;;;;;;7.50;77.51;101243.19;5034214;28;20045;-74
2022/01/04 02:22:38;;;;;;;50.33;31.92;;;;;;;7.51;77.46;101239.66;5034138;28;20057;-74
2022/01/04 02:25:06;;;;;;;55.10;32.17;;;;;;;7.53;77.50;101229.16;5033685;28;20099;-75
2022/01/04 02:27:34;;;;;;;47.88;29.92;;;;;;;7.52;77.61;101236.13;5034006;28;20050;-75
2022/01/04 02:30:03;;;;;;;49.90;30.80;;;;;;;7.51;77.44;101226.59;5033789;28;20046;-74
2022/01/04 02:32:29;;;;;;;47.13;30.55;;;;;;;7.51;77.59;101226.59;5032973;28;20038;-74
2022/01/04 02:34:56;;;;;;;44.90;29.63;;;;;;;7.50;77.53;101219.69;5029129;28;20172;-74
2022/01/04 02:37:25;;;;;;;49.25;30.58;;;;;;;7.50;77.61;101237.97;5027979;28;20049;-75
2022/01/04 02:39:53;;;;;;;51.17;31.52;;;;;;;7.51;77.55;101238.81;5033623;28;20487;-74
2022/01/04 02:42:21;;;;;;;45.88;29.38;;;;;;;7.50;77.71;101219.69;5033662;28;20045;-75
2022/01/04 02:44:48;;;;;;;50.25;30.88;;;;;;;7.51;77.51;101226.59;5032549;28;20455;-74
2022/01/04 02:47:15;;;;;;;49.22;31.75;;;;;;;7.53;77.60;101210.88;5033734;28;20050;-75
2022/01/04 02:49:42;;;;;;;53.22;31.25;;;;;;;7.52;77.53;101209.19;5032341;28;20050;-74
2022/01/04 02:52:09;;;;;;;48.95;29.88;;;;;;;7.52;77.78;101206.56;5033462;28;20111;-75
2022/01/04 02:54:36;;;;;;;46.92;29.95;;;;;;;7.52;77.68;101209.19;5033507;28;20452;-74
2022/01/04 02:57:03;;;;;;;46.72;29.98;;;;;;;7.52;77.82;101204.78;5033299;28;20095;-74
2022/01/04 02:59:29;;;;;;;49.33;30.52;;;;;;;7.52;77.75;101209.19;5044618;28;20045;-74
2022/01/04 03:01:56;;;;;;;45.83;29.98;;;;;;;7.48;77.71;101210.22;5036057;28;20099;-74
2022/01/04 03:04:23;;;;;;;52.15;29.90;;;;;;;7.47;77.79;101201.50;5033660;28;20125;-74
2022/01/04 03:06:50;;;;;;;49.92;30.73;;;;;;;7.48;77.91;101210.22;5032563;28;20049;-74
2022/01/04 03:09:17;;;;;;;45.97;30.25;;;;;;;7.45;77.83;101192.91;5033583;28;20053;-74
2022/01/04 03:11:43;;;;;;;52.58;31.92;;;;;;;7.46;77.85;101188.50;5033519;28;20050;-74
2022/01/04 03:14:10;;;;;;;51.30;31.83;;;;;;;7.47;77.82;101192.81;5033619;28;20515;-75
2022/01/04 03:16:37;;;;;;;54.47;31.83;;;;;;;7.48;77.80;101181.47;5033649;28;20487;-73
2022/01/04 03:19:06;;;;;;;50.22;31.50;;;;;;;7.49;78.01;101191.00;5033372;28;20045;-74
2022/01/04 03:21:34;;;;;;;50.78;30.27;;;;;;;7.49;77.70;101198.81;5032131;28;20041;-75
2022/01/04 03:24:04;;;;;;;49.63;30.20;;;;;;;7.48;77.72;101186.72;5032744;28;20195;-75
2022/01/04 03:26:31;;;;;;;50.88;31.10;;;;;;;7.50;77.85;101182.25;5032852;28;20050;-74
2022/01/04 03:28:58;;;;;;;52.17;31.45;;;;;;;7.49;77.87;101181.41;5032647;28;20045;-75
2022/01/04 03:31:28;;;;;;;49.72;31.08;;;;;;;7.49;77.77;101181.41;5032883;28;20049;-75
2022/01/04 03:33:55;;;;;;;50.45;30.02;;;;;;;7.49;77.72;101168.38;5032585;28;20049;-74
2022/01/04 03:36:24;;;;;;;50.60;31.33;;;;;;;7.49;77.81;101181.41;5018460;28;20060;-74
2022/01/04 03:38:53;;;;;;;51.22;31.63;;;;;;;7.50;78.01;101170.06;5031507;28;20057;-75
2022/01/04 03:41:21;;;;;;;48.72;31.13;;;;;;;7.51;77.66;101169.13;5032599;28;20053;-74
2022/01/04 03:43:49;;;;;;;50.38;30.60;;;;;;;7.51;77.77;101163.91;5032529;28;20053;-74
2022/01/04 03:46:18;;;;;;;50.28;30.35;;;;;;;7.50;77.72;101156.16;5032298;28;20075;-74
2022/01/04 03:48:45;;;;;;;51.78;30.05;;;;;;;7.50;77.77;101151.78;5032486;28;20469;-74
2022/01/04 03:51:12;;;;;;;50.05;31.58;;;;;;;7.49;77.78;101157.91;5032198;28;20079;-75
2022/01/04 03:53:38;;;;;;;52.67;30.35;;;;;;;7.50;77.71;101171.81;5032458;28;20045;-74
2022/01/04 03:56:06;;;;;;;47.92;29.83;;;;;;;7.51;77.72;101157.84;5031062;28;20569;-75
2022/01/04 03:58:33;;;;;;;52.55;31.98;;;;;;;7.50;77.71;101151.78;5032217;28;20557;-74
2022/01/04 04:01:01;;;;;;;49.90;30.85;;;;;;;7.51;77.78;101160.47;5032252;28;20095;-75
2022/01/04 04:03:28;;;;;;;51.55;31.50;;;;;;;7.49;77.94;101154.44;5035415;28;20511;-74
2022/01/04 04:05:55;;;;;;;50.22;30.67;;;;;;;7.48;77.83;101144.94;5039112;28;20045;-74
2022/01/04 04:08:21;;;;;;;49.28;31.00;;;;;;;7.47;77.84;101151.88;5032236;28;20099;-75
2022/01/04 04:10:48;;;;;;;47.42;30.55;;;;;;;7.48;77.95;101155.38;5028799;28;20042;-74
2022/01/04 04:13:15;;;;;;;53.13;32.05;;;;;;;7.47;77.96;101141.44;5027712;28;20498;-74
2022/01/04 04:15:41;;;;;;;51.22;31.20;;;;;;;7.48;77.79;101135.31;5028761;28;20048;-74
2022/01/04 04:18:09;;;;;;;51.70;30.58;;;;;;;7.48;77.94;101137.09;5028762;28;20049;-74
2022/01/04 04:20:37;;;;;;;49.47;31.48;;;;;;;7.47;77.99;101123.16;5028586;28;20045;-74
2022/01/04 04:23:05;;;;;;;51.65;31.98;;;;;;;7.46;77.86;101126.69;5028646;28;20531;-75
2022/01/04 04:25:32;;;;;;;48.47;30.10;;;;;;;7.47;77.89;101122.31;5028664;28;20045;-74
2022/01/04 04:27:59;;;;;;;50.63;31.08;;;;;;;7.45;77.67;101113.69;5028679;28;20099;-74
2022/01/04 04:30:26;;;;;;;49.75;30.67;;;;;;;7.44;78.00;101119.81;5027693;28;20120;-75
2022/01/04 04:32:53;;;;;;;50.33;31.17;;;;;;;7.44;77.92;101132.88;5028442;28;20045;-75
2022/01/04 04:35:20;;;;;;;51.65;31.13;;;;;;;7.45;77.91;101117.16;5028448;28;20641;-74
2022/01/04 04:37:47;;;;;;;52.13;31.73;;;;;;;7.44;77.95;101115.47;5028106;28;20041;-74
2022/01/04 04:40:14;;;;;;;53.22;31.48;;;;;;;7.45;77.86;101105.84;5028314;28;20564;-74
2022/01/04 04:42:40;;;;;;;53.65;31.17;;;;;;;7.44;77.92;101110.25;5028483;28;20239;-74
2022/01/04 04:45:08;;;;;;;52.92;31.38;;;;;;;7.43;77.89;101118.13;5028340;28;20045;-75
2022/01/04 04:47:35;;;;;;;52.85;31.75;;;;;;;7.41;77.91;101112.94;5027543;28;20049;-75
2022/01/04 04:50:03;;;;;;;51.55;30.40;;;;;;;7.42;78.11;101109.44;5028396;28;20100;-74
2022/01/04 04:52:30;;;;;;;49.13;31.13;;;;;;;7.42;77.97;101117.25;5028114;28;20054;-73
2022/01/04 04:54:58;;;;;;;50.15;30.38;;;;;;;7.43;77.96;101120.75;5028065;28;20868;-75
2022/01/04 04:57:25;;;;;;;51.15;30.52;;;;;;;7.45;78.03;101121.53;5028663;28;20393;-75
2022/01/04 04:59:51;;;;;;;50.72;30.85;;;;;;;7.43;78.07;101128.59;5028223;28;20111;-74
2022/01/04 05:02:18;;;;;;;46.53;28.65;;;;;;;7.43;77.92;101118.13;5028157;28;20096;-74
2022/01/04 05:04:45;;;;;;;49.35;29.30;;;;;;;7.44;77.97;101119.81;5028040;28;20100;-74
2022/01/04 05:07:11;;;;;;;53.55;30.60;;;;;;;7.42;77.90;101127.72;5027239;28;20546;-73
2022/01/04 05:09:38;;;;;;;53.42;30.10;;;;;;;7.43;77.95;101118.13;5031403;28;20049;-73
2022/01/04 05:12:06;;;;;;;48.20;30.15;;;;;;;7.42;77.95;101116.44;5031758;28;20046;-74
2022/01/04 05:14:33;;;;;;;52.25;29.58;;;;;;;7.43;77.88;101126.81;5032125;28;20095;-73
2022/01/04 05:16:59;;;;;;;51.95;30.70;;;;;;;7.41;77.97;101131.22;5031709;28;20103;-74
2022/01/04 05:19:26;;;;;;;51.60;31.40;;;;;;;7.39;78.08;101132.19;5032302;28;20095;-74
2022/01/04 05:21:52;;;;;;;54.15;30.40;;;;;;;7.40;77.87;101132.13;5030744;28;20518;-75
2022/01/04 05:24:19;;;;;;;54.45;31.95;;;;;;;7.41;77.91;101130.38;5032035;28;20076;-74
2022/01/04 05:26:46;;;;;;;56.45;31.45;;;;;;;7.41;77.93;101133.00;5031617;28;20045;-74
2022/01/04 05:29:12;;;;;;;52.78;30.67;;;;;;;7.40;77.91;101128.69;5018229;28;20042;-74
2022/01/04 05:31:39;;;;;;;50.83;29.63;;;;;;;7.39;77.90;101109.56;5031729;28;20045;-74
2022/01/04 05:34:05;;;;;;;53.88;31.63;;;;;;;7.40;77.88;101116.47;5032734;28;20389;-75
2022/01/04 05:36:32;;;;;;;52.45;29.58;;;;;;;7.40;77.90;101120.84;5031300;28;20049;-74
2022/01/04 05:39:00;;;;;;;51.95;30.45;;;;;;;7.40;77.90;101113.84;5031341;28;20557;-74
2022/01/04 05:41:27;;;;;;;50.33;29.55;;;;;;;7.39;77.96;101111.31;5030135;28;20045;-74
2022/01/04 05:43:53;;;;;;;53.10;31.70;;;;;;;7.40;77.80;101107.78;5031350;28;20486;-74
2022/01/04 05:46:20;;;;;;;52.05;30.92;;;;;;;7.39;78.04;101111.31;5031369;28;20046;-74
2022/01/04 05:48:47;;;;;;;52.50;30.70;;;;;;;7.39;78.16;101129.56;5031271;28;20053;-73
2022/01/04 05:51:13;;;;;;;53.17;29.92;;;;;;;7.40;77.96;101110.41;5031448;28;20057;-74
2022/01/04 05:53:40;;;;;;;54.53;29.98;;;;;;;7.41;77.92;101112.09;5031528;28;20128;-74
2022/01/04 05:56:06;;;;;;;48.72;29.50;;;;;;;7.41;77.90;101112.09;5031245;28;20041;-74
2022/01/04 05:58:33;;;;;;;53.33;28.80;;;;;;;7.38;78.02;101089.56;5029173;28;20095;-74
2022/01/04 06:01:00;;;;;;;53.17;30.80;;;;;;;7.38;77.93;101093.94;5031130;28;20049;-74
2022/01/04 06:03:27;;;;;;;54.45;31.33;;;;;;;7.39;78.12;101098.25;5031212;28;20049;-74
2022/01/04 06:05:54;;;;;;;52.10;29.63;;;;;;;7.39;78.06;101090.41;5030861;28;20088;-74
2022/01/04 06:08:22;;;;;;;48.50;29.20;;;;;;;7.39;78.03;101082.59;5031102;28;20048;-75
2022/01/04 06:10:51;;;;;;;54.05;29.98;;;;;;;7.38;78.10;101078.25;5031029;28;20138;-75
2022/01/04 06:16:03;;;;;;;56.80;30.90;;;;;;;7.38;78.14;101075.66;5030730;28;20123;-75
2022/01/04 06:18:30;;;;;;;59.38;31.05;;;;;;;7.39;78.25;101070.41;5030878;28;20081;-74
2022/01/04 06:20:57;;;;;;;53.20;30.90;;;;;;;7.39;77.95;101080.84;5030979;28;20080;-74
2022/01/04 06:23:24;;;;;;;55.53;31.38;;;;;;;7.40;78.07;101081.69;5030891;28;20049;-74
2022/01/04 06:25:53;;;;;;;52.67;31.08;;;;;;;7.39;78.11;101091.28;5030624;28;20507;-75
2022/01/04 06:28:20;;;;;;;54.40;30.35;;;;;;;7.34;78.31;101082.78;5030482;28;20042;-74
2022/01/04 06:30:50;;;;;;;51.00;28.85;;;;;;;7.35;78.20;101067.06;5029580;28;20053;-75
2022/01/04 06:33:21;;;;;;;51.42;29.73;;;;;;;7.35;78.41;101074.88;5030823;28;20476;-74
2022/01/04 06:35:49;;;;;;;51.85;30.63;;;;;;;7.34;78.37;101088.84;5030084;28;20038;-74
2022/01/04 06:38:16;;;;;;;51.92;28.52;;;;;;;7.30;78.45;101087.25;5030676;28;20120;-73
2022/01/04 06:40:43;;;;;;;49.80;27.73;;;;;;;7.29;78.33;101085.56;5030383;28;20053;-74
2022/01/04 06:43:09;;;;;;;55.17;29.38;;;;;;;7.30;78.45;101083.78;5030443;28;20838;-73
2022/01/04 06:45:36;;;;;;;51.78;29.00;;;;;;;7.31;78.33;101082.88;5030506;28;20049;-76
2022/01/04 06:48:04;;;;;;;54.88;30.38;;;;;;;7.30;78.50;101087.25;5029214;28;20141;-74
2022/01/04 06:50:31;;;;;;;54.63;29.30;;;;;;;7.33;78.35;101091.50;5029965;28;20064;-74
2022/01/04 06:52:58;;;;;;;56.10;29.35;;;;;;;7.30;78.41;101092.47;5030104;28;20049;-73
2022/01/04 06:55:25;;;;;;;53.35;30.35;;;;;;;7.30;78.48;101100.31;5030414;28;20050;-74
2022/01/04 06:57:52;;;;;;;52.13;27.83;;;;;;;7.28;78.31;101107.34;5030122;28;20056;-74
2022/01/04 07:00:18;;;;;;;56.63;30.83;;;;;;;7.28;78.70;101102.13;5016626;28;20290;-73
2022/01/04 07:02:45;;;;;;;57.38;29.92;;;;;;;7.28;78.56;101096.91;5028969;28;20053;-73
2022/01/04 07:05:12;;;;;;;57.40;29.88;;;;;;;7.25;78.65;101117.91;5029764;28;20081;-74
2022/01/04 07:07:38;;;;;;;55.17;29.98;;;;;;;7.23;78.52;101118.88;5029715;28;20054;-73
2022/01/04 07:10:05;;;;;;;58.35;30.40;;;;;;;7.20;78.77;101112.00;5029665;28;20049;-73
2022/01/04 07:12:32;;;;;;;61.13;30.40;;;;;;;7.20;78.93;101106.78;5029826;28;20048;-73
2022/01/04 07:14:58;;;;;;;60.00;29.25;;;;;;;7.23;78.69;101098.81;5030159;28;20056;-73
2022/01/04 07:17:25;;;;;;;59.58;31.05;;;;;;;7.22;78.72;101089.28;5029053;28;20037;-73
2022/01/04 07:19:52;;;;;;;63.33;30.85;;;;;;;7.25;78.76;101088.31;5029626;28;20087;-73
2022/01/04 07:22:18;;;;;;;63.22;31.40;;;;;;;7.24;78.68;101097.06;5029697;28;20152;-75
2022/01/04 07:24:45;;;;;;;58.10;28.98;;;;;;;7.25;78.60;101102.25;5029554;28;20120;-75
2022/01/04 07:27:11;;;;;;;63.83;30.30;;;;;;;7.26;79.13;101092.63;5029724;28;20037;-73
2022/01/04 07:29:38;;;;;;;56.90;28.08;;;;;;;7.26;78.71;101098.72;5029881;28;20045;-76
2022/01/04 07:32:05;;;;;;;60.97;30.25;;;;;;;7.28;78.62;101102.13;5028663;28;20427;-75
2022/01/04 07:34:32;;;;;;;61.33;31.13;;;;;;;7.26;78.65;101097.88;5028594;28;20457;-75
2022/01/04 07:36:58;;;;;;;61.60;31.60;;;;;;;7.28;78.73;101093.44;5029212;28;20503;-74
2022/01/04 07:39:26;;;;;;;55.97;28.83;;;;;;;7.30;78.81;101094.22;5029468;28;20115;-73
2022/01/04 07:41:54;;;;;;;55.83;30.15;;;;;;;7.32;78.70;101100.25;5028968;28;20049;-75
2022/01/04 07:44:20;;;;;;;60.05;32.20;;;;;;;7.35;78.66;101105.34;5029233;28;20107;-75
2022/01/04 07:46:47;;;;;;;57.08;30.45;;;;;;;7.35;78.76;101103.59;5029009;28;20108;-75
2022/01/04 07:49:15;;;;;;;58.80;30.90;;;;;;;7.36;78.61;101096.59;5029454;28;20049;-74
2022/01/04 07:51:42;;;;;;;61.70;31.35;;;;;;;7.38;78.44;101091.31;5028085;28;20046;-75
2022/01/04 07:54:09;;;;;;;65.55;29.55;;;;;;;7.39;78.60;101090.41;5029425;28;20486;-75
2022/01/04 07:56:35;;;;;;;57.08;30.48;;;;;;;7.38;78.58;101100.03;5043140;28;20045;-74
2022/01/04 07:59:03;;;;;;;57.63;30.27;;;;;;;7.40;78.56;101095.56;5029229;28;20041;-75
2022/01/04 08:01:30;;;;;;;62.10;31.33;;;;;;;7.40;78.45;101094.72;5028878;28;20061;-74
2022/01/04 08:03:58;;;;;;;55.30;28.83;;;;;;;7.42;78.45;101106.00;5028952;28;20064;-75
2022/01/04 08:06:24;;;;;;;61.72;29.90;;;;;;;7.41;78.23;101106.88;5029061;28;20272;-74
2022/01/04 08:08:51;;;;;;;58.40;30.73;;;;;;;7.40;78.32;101092.97;5027813;28;20041;-74
2022/01/04 08:11:19;;;;;;;60.75;31.25;;;;;;;7.42;78.38;101098.16;5028943;28;20053;-75
2022/01/04 08:13:45;;;;;;;57.03;29.90;;;;;;;7.41;78.37;101110.34;5028959;28;20045;-75
2022/01/04 08:16:15;;;;;;;57.17;30.13;;;;;;;7.43;78.34;101105.09;5028947;28;20411;-75
2022/01/04 08:18:42;;;;;;;60.33;31.42;;;;;;;7.46;78.42;101102.34;5028748;28;20547;-74
2022/01/04 08:21:29;;;;;;;59.70;30.85;;;;;;;7.46;78.25;101086.69;5028636;28;20053;-73
2022/01/04 08:23:55;;;;;;;55.40;29.02;;;;;;;7.48;78.22;101087.47;5028197;28;20045;-74
2022/01/04 08:26:23;;;;;;;56.03;30.48;;;;;;;7.48;78.45;101096.16;5027688;28;20569;-73
2022/01/04 08:28:50;;;;;;;58.83;30.40;;;;;;;7.48;78.21;101098.75;5028351;28;20038;-73
2022/01/04 08:31:17;;;;;;;59.75;31.40;;;;;;;7.49;78.29;101090.03;5027323;28;20102;-75
2022/01/04 08:33:51;;;;;;;58.00;31.23;;;;;;;7.48;78.19;101075.25;5028214;28;20454;-75
2022/01/04 08:36:18;;;;;;;62.53;31.85;;;;;;;7.50;78.37;101064.75;5028058;28;20492;-74
2022/01/04 08:38:45;;;;;;;60.45;33.47;;;;;;;7.55;78.26;101069.81;5028111;28;20107;-74
2022/01/04 08:41:11;;;;;;;64.55;32.17;;;;;;;7.56;78.20;101074.97;5028646;28;20099;-75
2022/01/04 08:43:38;;;;;;;57.67;32.35;;;;;;;7.58;78.13;101094.06;5029047;28;20072;-74
2022/01/04 08:46:05;;;;;;;107.82;60.45;;;;;;;7.61;78.06;101093.06;5032082;28;20065;-75
2022/01/04 08:48:31;;;;;;;301.88;167.68;;;;;;;7.62;77.76;101095.63;5032841;28;20054;-75
2022/01/04 08:50:58;;;;;;;135.70;76.45;;;;;;;7.64;78.06;101085.97;5032396;28;20049;-74
2022/01/04 08:53:25;;;;;;;70.13;38.17;;;;;;;7.66;77.76;101075.47;5032480;28;20051;-75
2022/01/04 08:55:51;;;;;;;62.35;33.75;;;;;;;7.67;77.97;101067.56;5032395;28;20107;-75
2022/01/04 08:58:19;;;;;;;62.28;34.95;;;;;;;7.70;77.89;101081.44;5031215;28;20128;-75
2022/01/04 09:00:46;;;;;;;59.63;32.40;;;;;;;7.70;77.84;101073.59;5032312;28;20050;-75
2022/01/04 09:03:14;;;;;;;73.28;42.90;;;;;;;7.72;77.81;101075.22;5031966;28;20140;-73
2022/01/04 09:05:41;;;;;;;62.83;34.30;;;;;;;7.75;77.63;101087.31;5032154;28;20408;-75
2022/01/04 09:08:07;;;;;;;62.97;33.45;;;;;;;7.77;77.69;101086.34;5032071;28;20119;-75
2022/01/04 09:10:34;;;;;;;57.83;31.05;;;;;;;7.81;77.51;101087.06;5032302;28;20388;-75
2022/01/04 09:13:07;;;;;;;60.78;32.65;;;;;;;7.82;77.50;101083.53;5027292;28;20046;-74
2022/01/04 09:21:18;;;;;;;62.83;31.55;;;;;;;7.83;77.42;101088.72;5022236;28;20129;-75
2022/01/04 09:23:48;;;;;;;59.75;30.92;;;;;;;7.85;77.30;101086.03;5031365;28;20076;-74
2022/01/04 09:26:16;;;;;;;57.15;31.48;;;;;;;7.87;77.29;101089.41;5031933;28;20049;-74
2022/01/04 09:28:44;;;;;;;57.67;31.25;;;;;;;7.88;77.34;101095.50;5031618;28;20042;-75
2022/01/04 09:31:11;;;;;;;63.25;32.70;;;;;;;7.84;77.45;101089.56;5031656;28;20107;-74
2022/01/04 09:33:38;;;;;;;60.15;32.25;;;;;;;7.88;77.41;101080.69;5030453;28;20073;-74
2022/01/04 09:36:24;;;;;;;65.90;34.40;;;;;;;7.89;77.28;101090.22;5031747;28;20045;-73
2022/01/04 09:38:52;;;;;;;60.95;31.92;;;;;;;7.88;77.13;101082.44;5030725;28;20296;-74
2022/01/04 09:41:18;;;;;;;62.38;32.67;;;;;;;7.86;77.38;101079.91;5031493;28;20396;-75
2022/01/04 09:43:47;;;;;;;48.80;26.20;;;;;;;7.94;77.82;101075.22;5031083;28;20068;-72
2022/01/04 09:46:13;;;;;;;57.35;31.08;;;;;;;8.03;76.96;101070.53;5032387;28;20053;-72
2022/01/04 09:48:40;;;;;;;61.30;33.33;;;;;;;7.96;77.21;101068.16;5031342;28;20053;-72
2022/01/04 09:51:10;;;;;;;61.22;32.45;;;;;;;7.94;77.19;101066.53;5031055;28;20108;-71
2022/01/04 09:53:37;;;;;;;63.38;31.45;;;;;;;8.18;76.48;101064.69;5031311;28;20069;-72
2022/01/04 09:56:03;;;;;;;62.80;32.22;;;;;;;8.05;76.86;101056.50;5030405;28;20085;-71
2022/01/04 09:58:32;;;;;;;62.70;32.20;;;;;;;8.01;76.89;101053.16;5031274;28;20053;-70
2022/01/04 10:00:58;;;;;;;60.13;31.42;;;;;;;8.02;76.98;101051.38;5031039;28;20129;-70
2022/01/04 10:03:29;;;;;;;65.15;33.13;;;;;;;7.97;77.02;101040.25;5030019;28;20045;-69
2022/01/04 10:06:15;;;;;;;65.28;33.47;;;;;;;7.93;77.17;101043.91;5030952;28;20475;-70
2022/01/04 10:08:53;;;;;;;66.95;35.97;;;;;;;7.94;77.15;101035.19;5031157;28;20052;-70
2022/01/04 10:11:37;;;;;;;71.15;34.08;;;;;;;7.89;76.97;101032.75;5029632;28;20100;-69
2022/01/04 10:14:25;;;;;;;63.03;33.70;;;;;;;7.90;77.12;101030.97;5024876;28;20119;-71
2022/01/04 10:16:54;;;;;;;61.47;32.70;;;;;;;7.90;77.10;101031.84;5027405;28;20049;-68
2022/01/04 10:19:37;;;;;;;64.50;33.25;;;;;;;7.93;76.95;101026.47;5029593;28;20499;-71
2022/01/04 10:22:13;;;;;;;62.03;32.25;;;;;;;7.91;77.01;101020.47;5030596;28;20049;-71
2022/01/04 10:24:41;;;;;;;63.15;33.97;;;;;;;7.92;77.10;101022.19;5030108;28;20049;-70
2022/01/04 10:27:48;;;;;;;68.10;34.85;;;;;;;7.94;77.02;101024.72;5030104;28;20053;-70
2022/01/04 10:30:26;;;;;;;67.38;35.78;;;;;;;7.97;76.79;101017.63;4988828;28;20125;-70
2022/01/04 10:32:57;;;;;;;67.30;31.85;;;;;;;8.00;76.96;101021.84;4987740;28;20046;-71
2022/01/04 10:35:24;;;;;;;65.47;34.45;;;;;;;8.01;76.94;101015.69;5012139;28;20104;-70
2022/01/04 10:37:51;;;;;;;60.78;31.42;;;;;;;8.03;76.89;101013.03;5029629;28;20504;-72
2022/01/04 10:40:19;;;;;;;58.80;32.72;;;;;;;7.99;76.94;101007.09;5028597;28;20084;-74
2022/01/04 10:42:46;;;;;;;60.15;33.58;;;;;;;7.99;77.20;101000.09;5028908;28;20080;-70
2022/01/04 10:45:25;;;;;;;62.20;34.15;;;;;;;7.99;76.94;101000.09;5028758;28;20569;-72
2022/01/04 10:47:52;;;;;;;59.63;33.20;;;;;;;7.98;77.02;101000.16;5027043;28;20056;-74
2022/01/04 10:50:34;;;;;;;63.50;33.42;;;;;;;7.96;77.04;101000.22;5028687;28;20061;-74
2022/01/04 10:53:02;;;;;;;60.35;32.85;;;;;;;7.96;76.98;101000.22;5028495;28;20049;-68
2022/01/04 10:55:35;;;;;;;56.33;31.40;;;;;;;7.97;76.94;100994.09;5028805;28;20053;-68
2022/01/04 10:58:04;;;;;;;54.58;31.02;;;;;;;7.99;77.01;100994.03;5028720;28;20119;-69
2022/01/04 11:00:31;;;;;;;58.90;32.80;;;;;;;7.99;76.99;100988.78;5028583;28;20106;-73
2022/01/04 11:03:00;;;;;;;58.47;31.33;;;;;;;7.99;77.15;100984.41;5028514;28;20488;-71
2022/01/04 11:05:27;;;;;;;57.97;32.50;;;;;;;7.98;77.16;100987.94;5018755;28;20050;-71
2022/01/04 11:08:04;;;;;;;70.70;36.25;;;;;;;7.99;77.22;100984.41;5027889;28;20049;-69
2022/01/04 11:10:34;;;;;;;65.20;34.80;;;;;;;7.99;77.33;100973.94;5018487;28;20046;-67
2022/01/04 11:13:02;;;;;;;71.85;36.60;;;;;;;7.98;77.65;100967.03;5028326;28;20057;-68
2022/01/04 11:15:30;;;;;;;62.53;33.75;;;;;;;7.99;77.68;100960.06;5028507;28;20099;-68
2022/01/04 11:17:56;;;;;;;63.70;35.25;;;;;;;8.01;77.74;100969.53;5028514;28;20484;-71
2022/01/04 11:20:24;;;;;;;69.85;36.50;;;;;;;8.00;77.70;100967.81;5029011;28;20042;-72
2022/01/04 11:22:51;;;;;;;72.78;37.17;;;;;;;7.99;77.73;100960.88;5028670;28;20053;-69
2022/01/04 11:25:22;;;;;;;59.33;34.10;;;;;;;7.99;77.88;100949.59;5023803;28;20522;-70
2022/01/04 11:28:06;;;;;;;67.55;33.72;;;;;;;7.98;77.65;100940.88;5028169;28;20443;-71
2022/01/04 11:30:40;;;;;;;64.13;34.80;;;;;;;7.98;78.08;100938.28;5026161;28;20115;-69
2022/01/04 11:33:19;;;;;;;65.18;34.83;;;;;;;8.01;77.95;100934.69;5025561;28;20144;-71